createdAt,value
2022-10-13T00:00:55.407Z,25.80
2022-10-13T00:03:22.253Z,25.50
2022-10-13T00:05:50.353Z,25.40
2022-10-13T00:08:20.053Z,25.83
2022-10-13T00:13:15.299Z,24.65
2022-10-13T00:15:44.581Z,24.55
2022-10-13T00:18:11.360Z,24.98
2022-10-13T00:20:43.319Z,23.35
2022-10-13T00:23:10.375Z,23.65
2022-10-13T00:25:45.250Z,23.23
2022-10-13T00:28:12.692Z,24.05
2022-10-13T00:30:40.262Z,23.25
2022-10-13T00:33:07.529Z,23.02
2022-10-13T00:35:34.624Z,22.50
2022-10-13T00:38:01.307Z,23.13
2022-10-13T00:40:28.100Z,22.02
2022-10-13T00:42:54.853Z,23.05
2022-10-13T00:45:27.405Z,21.77
2022-10-13T00:47:57.343Z,22.33
2022-10-13T00:50:30.271Z,19.50
2022-10-13T00:52:57.595Z,21.27
2022-10-13T00:55:26.881Z,21.30
2022-10-13T00:57:55.156Z,20.90
2022-10-13T01:00:25.358Z,21.80
2022-10-13T01:02:52.412Z,20.08
2022-10-13T01:05:20.248Z,19.77
2022-10-13T01:07:50.296Z,20.08
2022-10-13T01:10:26.375Z,19.38
2022-10-13T01:13:00.837Z,19.80
2022-10-13T01:15:38.042Z,18.42
2022-10-13T01:18:34.124Z,18.92
2022-10-13T01:21:25.703Z,19.20
2022-10-13T01:24:33.408Z,18.95
2022-10-13T01:27:08.940Z,17.80
2022-10-13T01:29:50.940Z,18.48
2022-10-13T01:32:42.913Z,18.88
2022-10-13T01:35:45.140Z,18.95
2022-10-13T01:38:28.087Z,16.85
2022-10-13T01:41:20.621Z,19.10
2022-10-13T01:44:09.702Z,17.58
2022-10-13T01:46:38.176Z,18.25
2022-10-13T01:49:07.827Z,17.35
2022-10-13T01:54:01.187Z,16.48
2022-10-13T01:56:27.880Z,16.20
2022-10-13T01:58:56.897Z,16.60
2022-10-13T02:01:51.723Z,16.17
2022-10-13T02:04:27.541Z,15.80
2022-10-13T02:07:12.117Z,15.75
2022-10-13T02:09:55.945Z,15.65
2022-10-13T02:12:37.699Z,15.63
2022-10-13T02:15:05.476Z,16.10
2022-10-13T02:17:32.536Z,15.27
2022-10-13T02:19:59.636Z,14.77
2022-10-13T02:22:30.535Z,15.55
2022-10-13T02:24:57.303Z,14.27
2022-10-13T02:27:24.151Z,14.63
2022-10-13T02:29:53.480Z,14.10
2022-10-13T02:32:21.058Z,15.52
2022-10-13T02:34:48.095Z,14.38
2022-10-13T02:37:14.887Z,14.55
2022-10-13T02:39:41.665Z,13.77
2022-10-13T02:42:08.709Z,13.73
2022-10-13T02:44:35.429Z,14.68
2022-10-13T02:47:02.180Z,13.77
2022-10-13T02:49:28.910Z,13.65
2022-10-13T02:51:55.836Z,13.45
2022-10-13T02:54:22.563Z,13.00
2022-10-13T02:56:49.276Z,12.85
2022-10-13T02:59:16.013Z,13.15
2022-10-13T03:01:44.507Z,13.27
2022-10-13T03:04:11.792Z,13.07
2022-10-13T03:06:38.571Z,12.98
2022-10-13T03:09:05.328Z,13.18
2022-10-13T03:11:32.198Z,13.52
2022-10-13T03:13:58.904Z,12.23
2022-10-13T03:16:25.679Z,12.77
2022-10-13T03:18:52.439Z,12.07
2022-10-13T03:21:19.140Z,12.10
2022-10-13T03:23:45.879Z,12.40
2022-10-13T03:26:12.686Z,12.63
2022-10-13T03:28:39.601Z,12.43
2022-10-13T03:31:08.569Z,12.68
2022-10-13T03:33:35.508Z,12.73
2022-10-13T03:36:05.004Z,11.85
2022-10-13T03:38:33.865Z,11.43
2022-10-13T03:41:11.877Z,11.95
2022-10-13T03:43:39.248Z,12.15
2022-10-13T03:46:07.167Z,11.98
2022-10-13T03:48:35.144Z,11.52
2022-10-13T03:51:14.200Z,11.20
2022-10-13T03:53:40.893Z,11.82
2022-10-13T03:56:08.040Z,11.38
2022-10-13T03:58:35.059Z,11.50
2022-10-13T04:01:06.023Z,10.55
2022-10-13T04:03:33.728Z,10.70
2022-10-13T04:06:02.017Z,11.10
2022-10-13T04:08:30.220Z,10.70
2022-10-13T04:11:04.817Z,10.20
2022-10-13T04:13:31.864Z,10.70
2022-10-13T04:18:44.691Z,10.50
2022-10-13T04:21:14.766Z,9.82
2022-10-13T04:26:15.243Z,10.73
2022-10-13T04:28:42.455Z,10.00
2022-10-13T04:31:09.154Z,9.55
2022-10-13T04:33:36.273Z,10.23
2022-10-13T04:36:07.428Z,10.40
2022-10-13T04:38:34.215Z,9.65
2022-10-13T04:41:05.010Z,9.68
2022-10-13T04:43:32.388Z,9.50
2022-10-13T04:46:05.862Z,9.35
2022-10-13T04:48:32.708Z,9.70
2022-10-13T04:51:04.865Z,9.40
2022-10-13T04:53:32.418Z,9.60
2022-10-13T04:56:03.860Z,9.25
2022-10-13T04:58:31.131Z,9.18
2022-10-13T05:00:58.019Z,8.60
2022-10-13T05:03:25.215Z,9.15
2022-10-13T05:05:52.221Z,9.73
2022-10-13T05:08:19.124Z,9.00
2022-10-13T05:10:55.032Z,8.70
2022-10-13T05:13:21.860Z,77.00
2022-10-13T05:15:48.600Z,56.40
2022-10-13T05:18:15.401Z,57.17
2022-10-13T05:20:42.175Z,53.58
2022-10-13T05:23:08.984Z,49.85
2022-10-13T05:25:36.303Z,47.50
2022-10-13T05:32:59.524Z,31.92
2022-10-13T05:35:26.555Z,29.75
2022-10-13T05:37:53.395Z,29.55
2022-10-13T05:40:22.882Z,27.10
2022-10-13T05:42:52.743Z,25.25
2022-10-13T05:45:20.167Z,24.52
2022-10-13T05:47:46.959Z,24.00
2022-10-13T05:50:13.761Z,22.67
2022-10-13T05:52:41.780Z,23.10
2022-10-13T05:55:10.196Z,22.77
2022-10-13T05:57:41.119Z,21.80
2022-10-13T06:00:09.049Z,20.90
2022-10-13T06:02:44.731Z,20.35
2022-10-13T06:05:15.059Z,19.52
2022-10-13T06:07:42.764Z,21.25
2022-10-13T06:10:10.034Z,55.70
2022-10-13T06:12:36.796Z,58.15
2022-10-13T06:15:04.248Z,52.35
2022-10-13T06:17:31.240Z,50.17
2022-10-13T06:19:59.457Z,44.28
2022-10-13T06:22:26.190Z,39.50
2022-10-13T06:24:52.956Z,35.83
2022-10-13T06:27:19.657Z,33.13
2022-10-13T06:29:46.460Z,30.38
2022-10-13T06:32:13.249Z,29.35
2022-10-13T06:34:39.971Z,29.67
2022-10-13T06:37:06.781Z,27.65
2022-10-13T06:39:33.611Z,26.10
2022-10-13T06:42:00.371Z,25.85
2022-10-13T06:44:27.103Z,27.20
2022-10-13T06:46:53.792Z,25.02
2022-10-13T06:49:21.076Z,24.45
2022-10-13T06:51:47.792Z,23.90
2022-10-13T06:54:14.505Z,23.80
2022-10-13T06:56:41.196Z,22.48
2022-10-13T06:59:08.028Z,22.92
2022-10-13T07:01:37.920Z,21.92
2022-10-13T07:04:08.250Z,21.80
2022-10-13T07:06:34.953Z,21.40
2022-10-13T07:09:05.849Z,21.27
2022-10-13T07:11:33.005Z,20.67
2022-10-13T07:16:31.859Z,88.68
2022-10-13T07:18:58.625Z,81.68
2022-10-13T07:21:25.359Z,66.88
2022-10-13T07:23:52.266Z,60.88
2022-10-13T07:26:19.088Z,53.03
2022-10-13T07:28:45.947Z,45.58
2022-10-13T07:31:21.835Z,40.17
2022-10-13T07:33:50.061Z,38.17
2022-10-13T07:36:17.475Z,36.28
2022-10-13T07:38:44.393Z,35.33
2022-10-13T07:41:12.375Z,32.22
2022-10-13T07:43:39.381Z,31.73
2022-10-13T07:46:07.202Z,31.55
2022-10-13T07:51:08.837Z,29.70
2022-10-13T07:53:36.291Z,28.48
2022-10-13T07:56:04.809Z,27.60
2022-10-13T07:58:31.693Z,28.33
2022-10-13T08:01:00.605Z,27.17
2022-10-13T08:03:28.008Z,83.82
2022-10-13T08:05:55.385Z,79.10
2022-10-13T08:08:22.223Z,66.53
2022-10-13T08:13:16.178Z,49.92
2022-10-13T08:15:44.193Z,44.55
2022-10-13T08:18:12.664Z,39.50
2022-10-13T08:20:44.114Z,38.00
2022-10-13T08:23:12.225Z,36.20
2022-10-13T08:25:42.582Z,35.22
2022-10-13T08:28:29.051Z,33.05
2022-10-13T08:30:59.878Z,33.42
2022-10-13T08:33:27.199Z,33.05
2022-10-13T08:35:54.106Z,31.88
2022-10-13T08:38:20.884Z,29.80
2022-10-13T08:40:49.040Z,28.90
2022-10-13T08:43:19.504Z,28.92
2022-10-13T08:45:47.982Z,28.30
2022-10-13T08:48:19.100Z,29.50
2022-10-13T08:50:49.559Z,27.20
2022-10-13T08:53:24.903Z,27.63
2022-10-13T08:55:58.949Z,28.08
2022-10-13T08:58:31.403Z,25.48
2022-10-13T09:01:07.279Z,26.20
2022-10-13T09:03:44.768Z,24.52
2022-10-13T09:06:32.797Z,26.42
2022-10-13T09:09:05.846Z,26.00
2022-10-13T09:11:38.241Z,23.83
2022-10-13T09:14:08.144Z,24.98
2022-10-13T09:16:38.451Z,25.17
2022-10-13T09:19:23.261Z,23.42
2022-10-13T09:21:52.449Z,27.23
2022-10-13T09:24:21.031Z,26.42
2022-10-13T09:26:49.875Z,25.08
2022-10-13T09:29:26.809Z,25.25
2022-10-13T09:32:16.235Z,24.05
2022-10-13T09:34:43.230Z,24.33
2022-10-13T09:37:25.963Z,22.40
2022-10-13T09:40:12.737Z,22.85
2022-10-13T09:42:39.823Z,22.02
2022-10-13T09:45:16.988Z,23.23
2022-10-13T09:48:13.499Z,22.38
2022-10-13T09:50:49.905Z,22.33
2022-10-13T09:56:39.451Z,21.73
2022-10-13T09:59:33.482Z,19.60
2022-10-13T10:02:04.028Z,22.10
2022-10-13T10:04:36.499Z,20.60
2022-10-13T10:07:11.069Z,21.35
2022-10-13T10:12:29.780Z,19.80
2022-10-13T10:14:56.565Z,19.88
2022-10-13T10:17:46.852Z,19.67
2022-10-13T10:20:25.578Z,19.48
2022-10-13T10:23:16.123Z,19.60
2022-10-13T10:25:46.037Z,18.98
2022-10-13T10:28:40.131Z,18.33
2022-10-13T10:31:17.210Z,18.23
2022-10-13T10:33:59.231Z,18.88
2022-10-13T10:36:41.085Z,18.50
2022-10-13T10:39:18.859Z,17.20
2022-10-13T10:42:09.204Z,18.00
2022-10-13T10:44:36.917Z,17.17
2022-10-13T10:47:22.643Z,17.58
2022-10-13T10:52:54.849Z,17.38
2022-10-13T10:55:47.533Z,17.42
2022-10-13T10:58:36.208Z,17.35
2022-10-13T11:01:25.643Z,16.38
2022-10-13T11:04:04.051Z,16.17
2022-10-13T11:06:36.214Z,16.27
2022-10-13T11:09:05.173Z,16.45
2022-10-13T11:11:42.510Z,15.93
2022-10-13T11:14:09.172Z,15.20
2022-10-13T11:16:38.578Z,15.35
2022-10-13T11:19:06.215Z,14.70
2022-10-13T11:21:54.897Z,16.30
2022-10-13T11:24:33.948Z,15.57
2022-10-13T11:27:12.266Z,15.40
2022-10-13T11:29:49.049Z,16.30
2022-10-13T11:32:27.921Z,16.42
2022-10-13T11:35:02.114Z,15.30
2022-10-13T11:37:55.790Z,15.90
2022-10-13T11:41:03.348Z,14.77
2022-10-13T11:43:57.102Z,14.35
2022-10-13T11:46:26.864Z,13.85
2022-10-13T11:52:03.384Z,15.07
2022-10-13T11:54:41.655Z,14.52
2022-10-13T11:57:19.342Z,13.73
2022-10-13T11:59:48.568Z,13.68
2022-10-13T12:02:18.945Z,14.63
2022-10-13T12:05:00.117Z,19.10
2022-10-13T12:07:32.700Z,21.98
2022-10-13T12:09:59.542Z,18.73
2022-10-13T12:12:26.677Z,19.17
2022-10-13T12:14:55.554Z,16.10
2022-10-13T12:17:33.038Z,14.02
2022-10-13T12:20:04.113Z,14.77
2022-10-13T12:22:31.261Z,14.82
2022-10-13T12:24:59.593Z,13.07
2022-10-13T12:27:27.834Z,15.68
2022-10-13T12:29:54.716Z,13.88
2022-10-13T12:32:23.823Z,16.98
2022-10-13T12:34:50.686Z,17.52
2022-10-13T12:37:33.371Z,16.02
2022-10-13T12:40:00.788Z,15.60
2022-10-13T12:42:35.546Z,15.05
2022-10-13T12:45:02.850Z,15.13
2022-10-13T12:47:45.066Z,12.93
2022-10-13T12:50:22.039Z,13.77
2022-10-13T12:53:13.908Z,13.40
2022-10-13T12:55:55.445Z,12.48
2022-10-13T12:58:36.136Z,12.38
2022-10-13T13:01:11.749Z,11.70
2022-10-13T13:03:40.199Z,11.70
2022-10-13T13:06:22.709Z,11.50
2022-10-13T13:09:27.604Z,11.57
2022-10-13T13:12:26.071Z,10.82
2022-10-13T13:14:55.055Z,10.77
2022-10-13T13:17:45.437Z,11.15
2022-10-13T13:20:33.906Z,9.93
2022-10-13T13:23:01.076Z,10.35
2022-10-13T13:25:28.055Z,10.10
2022-10-13T13:27:54.946Z,10.13
2022-10-13T13:30:23.151Z,10.05
2022-10-13T13:32:50.425Z,9.80
2022-10-13T13:35:17.362Z,10.88
2022-10-13T13:37:49.601Z,10.23
2022-10-13T13:40:25.220Z,9.73
2022-10-13T13:42:52.261Z,9.60
2022-10-13T13:45:21.755Z,9.65
2022-10-13T13:47:48.948Z,10.32
2022-10-13T13:50:25.575Z,8.98
2022-10-13T13:52:52.575Z,9.45
2022-10-13T13:55:19.616Z,8.98
2022-10-13T13:57:46.413Z,8.95
2022-10-13T14:00:14.520Z,8.85
2022-10-13T14:02:42.867Z,8.30
2022-10-13T14:05:10.739Z,7.25
2022-10-13T14:07:37.541Z,6.20
2022-10-13T14:10:05.036Z,6.05
2022-10-13T14:12:32.483Z,6.47
2022-10-13T14:14:59.281Z,6.50
2022-10-13T14:17:27.021Z,6.70
2022-10-13T14:19:54.327Z,6.30
2022-10-13T14:22:22.166Z,7.70
2022-10-13T14:24:49.329Z,6.65
2022-10-13T14:27:16.125Z,6.43
2022-10-13T14:29:43.957Z,6.75
2022-10-13T14:32:10.740Z,6.60
2022-10-13T14:34:37.515Z,6.53
2022-10-13T14:37:04.245Z,6.60
2022-10-13T14:39:30.955Z,6.28
2022-10-13T14:41:57.680Z,6.68
2022-10-13T14:44:24.416Z,6.22
2022-10-13T14:46:51.133Z,6.03
2022-10-13T14:49:17.863Z,6.47
2022-10-13T14:51:44.650Z,6.70
2022-10-13T14:54:12.432Z,26.33
2022-10-13T14:56:39.235Z,26.40
2022-10-13T14:59:07.225Z,21.88
2022-10-13T15:01:34.414Z,16.67
2022-10-13T15:04:01.732Z,14.05
2022-10-13T15:06:29.101Z,12.25
2022-10-13T15:08:56.180Z,12.52
2022-10-13T15:11:23.280Z,11.60
2022-10-13T15:13:50.140Z,9.90
2022-10-13T15:16:25.300Z,12.02
2022-10-13T15:18:52.028Z,10.20
2022-10-13T15:21:19.028Z,9.07
2022-10-13T15:23:45.939Z,9.65
2022-10-13T15:26:13.983Z,9.55
2022-10-13T15:28:43.178Z,8.75
2022-10-13T15:31:10.379Z,8.68
2022-10-13T15:33:37.534Z,8.65
2022-10-13T15:36:04.607Z,7.90
2022-10-13T15:38:31.339Z,8.30
2022-10-13T15:41:01.640Z,9.50
2022-10-13T15:43:28.372Z,8.15
2022-10-13T15:45:59.672Z,9.10
2022-10-13T15:48:26.600Z,7.43
2022-10-13T15:50:53.312Z,7.32
2022-10-13T15:53:20.206Z,7.50
2022-10-13T15:55:47.947Z,7.50
2022-10-13T15:58:15.332Z,8.27
2022-10-13T16:00:42.810Z,6.95
2022-10-13T16:03:17.308Z,6.88
2022-10-13T16:05:45.293Z,7.35
2022-10-13T16:08:12.738Z,7.55
2022-10-13T16:10:41.323Z,7.22
2022-10-13T16:13:08.894Z,6.88
2022-10-13T16:15:35.605Z,6.90
2022-10-13T16:18:02.479Z,6.85
2022-10-13T16:20:34.361Z,6.32
2022-10-13T16:23:01.821Z,6.75
2022-10-13T16:25:29.288Z,6.45
2022-10-13T16:27:56.417Z,6.40
2022-10-13T16:30:23.194Z,7.07
2022-10-13T16:32:49.939Z,6.88
2022-10-13T16:35:16.733Z,6.10
2022-10-13T16:37:43.464Z,5.93
2022-10-13T16:40:10.751Z,5.90
2022-10-13T16:42:37.626Z,6.10
2022-10-13T16:45:04.896Z,6.63
2022-10-13T16:47:31.699Z,20.52
2022-10-13T16:49:58.407Z,31.83
2022-10-13T16:52:25.206Z,29.13
2022-10-13T16:54:51.910Z,22.58
2022-10-13T16:57:18.916Z,19.50
2022-10-13T16:59:45.873Z,17.33
2022-10-13T17:02:15.554Z,16.70
2022-10-13T17:07:12.092Z,15.23
2022-10-13T17:09:38.800Z,13.27
2022-10-13T17:12:06.080Z,12.32
2022-10-13T17:14:32.896Z,11.57
2022-10-13T17:16:59.621Z,12.55
2022-10-13T17:19:26.445Z,11.27
2022-10-13T17:21:53.213Z,11.80
2022-10-13T17:24:19.995Z,12.10
2022-10-13T17:26:49.680Z,11.73
2022-10-13T17:31:43.111Z,11.60
2022-10-13T17:34:09.856Z,11.07
2022-10-13T17:36:36.603Z,10.40
2022-10-13T17:39:06.534Z,11.02
2022-10-13T17:41:33.664Z,12.38
2022-10-13T17:44:00.603Z,10.93
2022-10-13T17:46:38.275Z,10.32
2022-10-13T17:49:07.078Z,11.18
2022-10-13T17:51:33.788Z,11.18
2022-10-13T17:54:00.925Z,12.98
2022-10-13T17:56:28.572Z,10.48
2022-10-13T17:58:55.679Z,11.73
2022-10-13T18:01:27.020Z,11.10
2022-10-13T18:03:55.916Z,19.25
2022-10-13T18:06:23.096Z,51.17
2022-10-13T18:08:50.777Z,40.15
2022-10-13T18:11:20.379Z,31.23
2022-10-13T18:13:47.542Z,29.70
2022-10-13T18:16:17.556Z,27.25
2022-10-13T18:18:45.329Z,27.17
2022-10-13T18:21:14.433Z,26.23
2022-10-13T18:23:41.780Z,22.83
2022-10-13T18:26:12.061Z,23.38
2022-10-13T18:28:40.433Z,21.75
2022-10-13T18:31:18.694Z,20.08
2022-10-13T18:33:45.943Z,19.77
2022-10-13T18:36:24.976Z,17.65
2022-10-13T18:38:53.502Z,16.80
2022-10-13T18:41:22.500Z,48.38
2022-10-13T18:43:49.566Z,63.35
2022-10-13T18:46:16.328Z,44.10
2022-10-13T18:48:43.383Z,69.05
2022-10-13T18:51:12.295Z,81.03
2022-10-13T18:53:41.644Z,67.85
2022-10-13T18:56:13.888Z,65.70
2022-10-13T18:58:41.114Z,59.08
2022-10-13T19:01:17.267Z,48.83
2022-10-13T19:03:44.536Z,44.78
2022-10-13T19:06:13.558Z,41.13
2022-10-13T19:08:40.765Z,38.58
2022-10-13T19:11:18.865Z,35.45
2022-10-13T19:13:46.247Z,33.08
2022-10-13T19:16:14.445Z,32.55
2022-10-13T19:18:41.579Z,30.23
2022-10-13T19:21:09.878Z,29.63
2022-10-13T19:23:36.639Z,26.08
2022-10-13T19:26:14.843Z,26.05
2022-10-13T19:28:42.634Z,25.50
2022-10-13T19:31:15.256Z,24.52
2022-10-13T19:33:44.720Z,22.90
2022-10-13T19:38:48.532Z,22.77
2022-10-13T19:41:15.423Z,21.27
2022-10-13T19:43:42.137Z,22.52
2022-10-13T19:46:09.397Z,21.98
2022-10-13T19:48:36.354Z,20.02
2022-10-13T19:51:07.703Z,19.90
2022-10-13T19:53:34.962Z,20.08
2022-10-13T19:56:01.709Z,19.48
2022-10-13T19:58:28.418Z,17.83
2022-10-13T20:00:55.212Z,18.98
2022-10-13T20:03:22.029Z,17.88
2022-10-13T20:05:48.773Z,25.65
2022-10-13T20:08:15.480Z,39.13
2022-10-13T20:10:43.272Z,30.52
2022-10-13T20:13:11.049Z,24.85
2022-10-13T20:15:42.340Z,24.27
2022-10-13T20:18:10.584Z,21.08
2022-10-13T20:20:37.374Z,21.45
2022-10-13T20:23:04.140Z,20.10
2022-10-13T20:25:30.883Z,18.90
2022-10-13T20:27:57.600Z,19.10
2022-10-13T20:30:24.322Z,18.45
2022-10-13T20:32:51.046Z,19.15
2022-10-13T20:35:17.824Z,17.30
2022-10-13T20:37:44.534Z,16.98
2022-10-13T20:40:11.573Z,16.85
2022-10-13T20:42:38.356Z,16.85
2022-10-13T20:45:05.806Z,16.70
2022-10-13T20:47:32.528Z,16.50
2022-10-13T20:49:59.231Z,53.28
2022-10-13T20:52:25.980Z,55.53
2022-10-13T20:54:52.728Z,42.83
2022-10-13T20:57:19.745Z,33.20
2022-10-13T20:59:46.656Z,30.73
2022-10-13T21:02:13.891Z,28.38
2022-10-13T21:04:40.793Z,26.77
2022-10-13T21:07:07.503Z,24.95
2022-10-13T21:09:37.308Z,22.95
2022-10-13T21:12:04.200Z,21.77
2022-10-13T21:14:30.916Z,21.48
2022-10-13T21:16:57.768Z,20.90
2022-10-13T21:19:25.081Z,20.23
2022-10-13T21:21:51.908Z,20.30
2022-10-13T21:24:18.600Z,52.05
2022-10-13T21:26:45.351Z,53.08
2022-10-13T21:29:12.152Z,40.70
2022-10-13T21:31:38.943Z,34.78
2022-10-13T21:34:05.724Z,31.63
2022-10-13T21:36:33.667Z,28.52
2022-10-13T21:39:03.816Z,27.80
2022-10-13T21:41:30.840Z,24.52
2022-10-13T21:43:57.932Z,24.30
2022-10-13T21:46:27.657Z,23.27
2022-10-13T21:51:24.177Z,22.55
2022-10-13T21:53:53.060Z,21.88
2022-10-13T21:56:20.272Z,21.75
2022-10-13T21:58:47.324Z,20.92
2022-10-13T22:01:14.217Z,20.05
2022-10-13T22:03:41.681Z,18.92
2022-10-13T22:06:18.452Z,19.50
2022-10-13T22:08:47.752Z,17.90
2022-10-13T22:11:15.157Z,17.88
2022-10-13T22:13:41.849Z,18.80
2022-10-13T22:16:09.909Z,18.05
2022-10-13T22:18:36.654Z,17.67
2022-10-13T22:21:05.877Z,16.77
2022-10-13T22:23:33.019Z,17.90
2022-10-13T22:25:59.889Z,17.52
2022-10-13T22:28:26.764Z,16.17
2022-10-13T22:30:53.549Z,17.15
2022-10-13T22:33:20.739Z,17.00
2022-10-13T22:35:47.460Z,15.48
2022-10-13T22:38:14.675Z,16.30
2022-10-13T22:40:41.864Z,16.02
2022-10-13T22:43:08.774Z,15.10
2022-10-13T22:45:35.656Z,16.13
2022-10-13T22:48:02.386Z,15.45
2022-10-13T22:50:29.429Z,15.80
2022-10-13T22:52:56.426Z,15.23
2022-10-13T22:55:23.192Z,15.05
2022-10-13T22:57:49.892Z,14.48
2022-10-13T23:00:16.767Z,14.00
2022-10-13T23:02:43.443Z,13.90
2022-10-13T23:05:10.188Z,13.77
2022-10-13T23:07:36.885Z,14.75
2022-10-13T23:10:04.104Z,13.80
2022-10-13T23:14:57.830Z,14.18
2022-10-13T23:17:24.848Z,13.82
2022-10-13T23:19:51.704Z,13.20
2022-10-13T23:22:18.493Z,12.80
2022-10-13T23:24:45.244Z,13.52
2022-10-13T23:27:11.940Z,11.75
2022-10-13T23:29:38.630Z,12.93
2022-10-13T23:32:09.497Z,12.40
2022-10-13T23:34:36.547Z,12.73
2022-10-13T23:37:03.293Z,12.93
2022-10-13T23:39:30.087Z,13.02
2022-10-13T23:41:56.907Z,13.52
2022-10-13T23:44:23.639Z,12.30
2022-10-13T23:46:50.343Z,12.50
2022-10-13T23:49:17.076Z,11.68
2022-10-13T23:51:44.311Z,12.23
2022-10-13T23:54:11.264Z,12.18
2022-10-13T23:56:38.793Z,11.30
2022-10-13T23:59:05.827Z,11.80
